Time;durP1;ratioP1;P1;durP2;ratioP2;P2;SDS_P1;SDS_P2;PMS_P1;PMS_P2;Temp;Humidity;BMP_temperature;BMP_pressure;BME280_temperature;BME280_humidity;BME280_pressure;Samples;Min_cycle;Max_cycle;Signal;HPM_P1;HPM_P2
2022/11/07 00:00:20;;;;;;;3.10;2.00;;;;;;;6.90;100.00;92924.31;2123058;27;20061;-71
2022/11/07 00:01:22;;;;;;;3.03;1.80;;;;;;;6.89;100.00;92922.78;2128506;27;20021;-71
2022/11/07 00:02:23;;;;;;;3.33;2.05;;;;;;;6.82;100.00;92920.97;2131543;27;20058;-71
2022/11/07 00:03:24;;;;;;;3.28;1.88;;;;;;;6.84;100.00;92928.53;2131547;27;20023;-71
2022/11/07 00:04:30;;;;;;;3.95;2.10;;;;;;;6.84;100.00;92926.63;2131683;27;20018;-71
2022/11/07 00:05:31;;;;;;;6.03;2.33;;;;;;;6.91;100.00;92928.47;2131284;27;20031;-70
2022/11/07 00:06:32;;;;;;;3.20;1.67;;;;;;;7.20;100.00;92924.34;2131450;27;20082;-70
2022/11/07 00:07:33;;;;;;;2.85;1.83;;;;;;;7.09;100.00;92928.25;2131479;27;20018;-70
2022/11/07 00:08:34;;;;;;;3.40;1.95;;;;;;;7.02;100.00;92935.19;2131535;27;20031;-70
2022/11/07 00:09:35;;;;;;;5.78;2.03;;;;;;;7.00;100.00;92934.81;2131389;27;20377;-70
2022/11/07 00:10:38;;;;;;;6.20;2.05;;;;;;;7.34;100.00;92934.03;2130724;27;20030;-70
2022/11/07 00:11:39;;;;;;;6.53;2.05;;;;;;;7.13;100.00;92932.38;2131513;27;20464;-70
2022/11/07 00:12:40;;;;;;;4.30;1.73;;;;;;;7.10;100.00;92930.50;2122205;27;20176;-70
2022/11/07 00:13:41;;;;;;;4.00;1.60;;;;;;;7.17;100.00;92935.75;2122225;27;20060;-70
2022/11/07 00:14:41;;;;;;;5.00;2.42;;;;;;;7.11;100.00;92934.69;2131580;27;20114;-70
2022/11/07 00:15:42;;;;;;;3.70;1.85;;;;;;;7.05;100.00;92936.28;2130445;27;20050;-71
2022/11/07 00:16:45;;;;;;;6.82;2.10;;;;;;;7.01;100.00;92931.00;2131470;27;20031;-70
2022/11/07 00:17:46;;;;;;;5.68;2.10;;;;;;;7.02;100.00;92945.81;2127438;27;20023;-70
2022/11/07 00:18:47;;;;;;;4.20;1.70;;;;;;;7.02;100.00;92945.81;2131521;27;20023;-70
2022/11/07 00:19:48;;;;;;;4.03;1.75;;;;;;;7.07;100.00;92941.97;2131632;27;20114;-70
2022/11/07 00:20:49;;;;;;;6.68;1.92;;;;;;;7.06;100.00;92954.47;2130054;27;20139;-70
2022/11/07 00:21:50;;;;;;;6.25;1.70;;;;;;;7.07;100.00;92942.72;2131532;27;20035;-70
2022/11/07 00:22:51;;;;;;;6.80;1.88;;;;;;;7.16;100.00;92947.53;2131898;27;20027;-70
2022/11/07 00:23:53;;;;;;;6.85;2.15;;;;;;;7.28;100.00;92948.91;2130761;27;20403;-70
2022/11/07 00:24:54;;;;;;;5.28;1.50;;;;;;;7.40;100.00;92952.94;2131322;27;20060;-70
2022/11/07 00:26:01;;;;;;;4.25;1.80;;;;;;;7.35;100.00;92946.19;2130318;27;20038;-70
2022/11/07 00:27:02;;;;;;;4.75;1.83;;;;;;;7.40;100.00;92951.03;2131413;27;20026;-70
2022/11/07 00:28:03;;;;;;;4.88;1.85;;;;;;;7.29;100.00;92956.50;2131343;27;20079;-70
2022/11/07 00:29:05;;;;;;;3.08;1.60;;;;;;;7.24;100.00;92966.81;2131334;27;20037;-71
2022/11/07 00:30:06;;;;;;;4.85;1.40;;;;;;;7.18;100.00;92957.78;2131379;27;20026;-70
2022/11/07 00:31:09;;;;;;;4.80;1.85;;;;;;;7.09;100.00;92962.81;2130578;27;20331;-70
2022/11/07 00:32:10;;;;;;;5.88;2.00;;;;;;;7.09;100.00;92960.16;2131299;27;20083;-70
2022/11/07 00:33:11;;;;;;;2.92;1.52;;;;;;;7.31;100.00;92962.16;2131352;27;20099;-70
2022/11/07 00:34:13;;;;;;;9.43;2.35;;;;;;;7.23;100.00;92965.31;2131219;27;20029;-70
2022/11/07 00:35:14;;;;;;;5.07;1.77;;;;;;;7.21;100.00;92964.97;2131511;27;20023;-71
2022/11/07 00:36:27;;;;;;;5.55;1.80;;;;;;;7.14;100.00;92973.75;2117826;27;20110;-70
2022/11/07 00:37:28;;;;;;;9.77;1.83;;;;;;;7.26;100.00;92970.59;2124115;27;20027;-71
2022/11/07 00:38:29;;;;;;;6.10;1.73;;;;;;;7.27;100.00;92956.13;2122130;27;20027;-70
2022/11/07 00:39:30;;;;;;;2.88;1.33;;;;;;;7.47;100.00;92968.84;2122456;27;20459;-70
2022/11/07 00:40:31;;;;;;;4.60;1.60;;;;;;;7.62;100.00;92962.16;2131255;27;20341;-70
2022/11/07 00:41:32;;;;;;;9.23;1.85;;;;;;;7.62;100.00;92967.47;2130531;27;20083;-71
2022/11/07 00:42:33;;;;;;;5.93;1.40;;;;;;;7.63;100.00;92962.91;2131262;27;20206;-70
2022/11/07 00:43:34;;;;;;;8.02;2.00;;;;;;;7.53;100.00;92964.56;2131063;27;21446;-70
2022/11/07 00:44:35;;;;;;;2.40;1.67;;;;;;;7.43;100.00;92958.22;2131168;27;20047;-70
2022/11/07 00:45:36;;;;;;;5.53;1.80;;;;;;;7.37;100.00;92964.38;2131441;27;20018;-70
2022/11/07 00:46:37;;;;;;;4.70;1.90;;;;;;;7.27;100.00;92956.13;2130980;27;20026;-71
2022/11/07 00:47:38;;;;;;;7.43;1.50;;;;;;;7.57;100.00;92966.03;2131319;27;20118;-71
2022/11/07 00:48:42;;;;;;;2.63;1.80;;;;;;;7.49;100.00;92958.53;2131051;27;20479;-70
2022/11/07 00:49:43;;;;;;;4.05;1.88;;;;;;;7.43;100.00;92960.16;2131161;27;20039;-70
2022/11/07 00:50:44;;;;;;;6.45;1.50;;;;;;;7.40;100.00;92959.03;2131172;27;20460;-70
2022/11/07 00:51:45;;;;;;;5.55;1.70;;;;;;;7.34;100.00;92955.31;2126836;27;20050;-70
2022/11/07 00:52:46;;;;;;;4.53;2.08;;;;;;;7.21;100.00;92955.06;2131091;27;20034;-70
2022/11/07 00:53:47;;;;;;;5.13;1.98;;;;;;;7.21;100.00;92955.06;2130857;27;20440;-70
2022/11/07 00:54:48;;;;;;;3.25;1.60;;;;;;;7.24;100.00;92956.16;2131214;27;20114;-70
2022/11/07 00:55:49;;;;;;;5.63;1.55;;;;;;;7.16;100.00;92950.19;2130698;27;20042;-70
2022/11/07 00:56:50;;;;;;;2.78;1.95;;;;;;;7.18;100.00;92957.78;2125958;27;20027;-70
2022/11/07 00:57:51;;;;;;;11.30;1.67;;;;;;;7.03;100.00;92949.97;2131153;27;20030;-69
2022/11/07 00:58:57;;;;;;;5.10;2.17;;;;;;;7.03;100.00;92957.19;2131233;27;20364;-69
2022/11/07 01:00:00;;;;;;;5.03;1.58;;;;;;;6.99;100.00;92957.22;2130991;27;20045;-70
2022/11/07 01:01:09;;;;;;;3.63;1.50;;;;;;;6.87;100.00;92963.03;2131196;27;20027;-70
2022/11/07 01:02:10;;;;;;;6.32;1.80;;;;;;;6.85;100.00;92956.59;2130390;27;20041;-70
2022/11/07 01:05:57;;;;;;;4.75;1.42;;;;;;;7.09;100.00;92952.94;2127648;27;20039;-71
2022/11/07 01:06:58;;;;;;;6.13;1.50;;;;;;;7.03;100.00;92965.91;2130036;27;20026;-70
2022/11/07 01:07:59;;;;;;;6.07;1.90;;;;;;;6.93;100.00;92955.38;2130903;27;20030;-70
2022/11/07 01:09:00;;;;;;;8.23;1.60;;;;;;;7.13;100.00;92956.31;2131063;27;20468;-70
2022/11/07 01:10:02;;;;;;;4.47;1.50;;;;;;;7.16;100.00;92960.84;2121626;27;20087;-70
2022/11/07 01:11:06;;;;;;;5.38;1.40;;;;;;;7.02;100.00;92956.44;2121910;27;20454;-70
2022/11/07 01:12:07;;;;;;;4.57;1.40;;;;;;;6.90;100.00;92948.97;2130922;27;20026;-70
2022/11/07 01:13:09;;;;;;;6.38;1.27;;;;;;;6.83;100.00;92954.34;2130083;27;20117;-70
2022/11/07 01:14:12;;;;;;;4.40;1.30;;;;;;;6.86;100.00;92960.78;2130378;27;20039;-70
2022/11/07 01:15:13;;;;;;;3.22;1.48;;;;;;;6.94;100.00;92960.31;2131089;27;20147;-70
2022/11/07 01:16:14;;;;;;;5.95;1.88;;;;;;;6.94;100.00;92964.88;2130906;27;20051;-70
2022/11/07 01:17:14;;;;;;;2.30;1.27;;;;;;;6.99;100.00;92962.53;2126645;27;20114;-70
2022/11/07 01:18:15;;;;;;;2.53;1.40;;;;;;;6.88;100.00;92964.53;2128828;27;20042;-70
2022/11/07 01:19:18;;;;;;;4.50;1.45;;;;;;;6.94;100.00;92957.66;2130823;27;20027;-70
2022/11/07 01:20:19;;;;;;;3.28;1.30;;;;;;;6.98;100.00;92976.19;2131091;27;20042;-70
2022/11/07 01:21:21;;;;;;;5.70;2.03;;;;;;;6.96;100.00;92973.19;2130920;27;20058;-70
2022/11/07 01:22:22;;;;;;;5.20;1.48;;;;;;;6.93;100.00;92974.72;2130869;27;20062;-70
2022/11/07 01:23:23;;;;;;;3.90;1.27;;;;;;;6.96;100.00;92973.94;2129245;27;20041;-70
2022/11/07 01:24:29;;;;;;;3.75;1.30;;;;;;;7.02;100.00;92972.38;2130885;27;20032;-70
2022/11/07 01:25:30;;;;;;;8.63;1.80;;;;;;;7.11;100.00;92963.91;2130931;27;20030;-70
2022/11/07 01:26:31;;;;;;;3.00;1.58;;;;;;;7.22;100.00;92964.56;2130915;27;20026;-70
2022/11/07 01:27:32;;;;;;;4.00;1.50;;;;;;;7.19;100.00;92968.00;2130763;27;20064;-70
2022/11/07 01:28:34;;;;;;;4.35;1.60;;;;;;;7.09;100.00;92958.25;2129774;27;20449;-70
2022/11/07 01:29:35;;;;;;;6.63;1.60;;;;;;;7.16;100.00;92973.38;2130898;27;20587;-70
2022/11/07 01:30:40;;;;;;;6.70;1.75;;;;;;;7.20;100.00;92961.56;2130956;27;20033;-70
2022/11/07 01:31:41;;;;;;;5.25;1.40;;;;;;;7.37;100.00;92965.13;2130752;27;20039;-70
2022/11/07 01:32:44;;;;;;;2.42;1.20;;;;;;;7.37;100.00;92962.47;2130914;27;20035;-70
2022/11/07 01:33:45;;;;;;;3.65;1.20;;;;;;;7.36;100.00;92963.63;2126627;27;20480;-70
2022/11/07 01:34:46;;;;;;;4.60;1.65;;;;;;;7.33;100.00;92969.72;2130653;27;20031;-70
2022/11/07 01:35:47;;;;;;;7.40;1.50;;;;;;;7.40;100.00;92972.31;2130849;27;20456;-70
2022/11/07 01:36:48;;;;;;;4.43;1.50;;;;;;;7.34;100.00;92968.59;2130787;27;20098;-71
2022/11/07 01:37:49;;;;;;;2.45;1.10;;;;;;;7.51;100.00;92966.88;2130771;27;20034;-70
2022/11/07 01:38:49;;;;;;;5.55;1.48;;;;;;;7.53;100.00;92962.66;2127000;27;20060;-70
2022/11/07 01:39:50;;;;;;;5.22;1.50;;;;;;;7.44;100.00;92964.31;2130749;27;20031;-70
2022/11/07 01:42:11;;;;;;;3.17;1.35;;;;;;;7.48;100.00;92968.44;2130748;27;20134;-71
2022/11/07 01:43:13;;;;;;;5.65;1.70;;;;;;;7.53;100.00;92967.97;2130559;27;20044;-70
2022/11/07 01:44:14;;;;;;;3.17;1.40;;;;;;;7.47;100.00;92963.50;2119596;27;20034;-70
2022/11/07 01:45:24;;;;;;;2.63;1.30;;;;;;;7.40;100.00;92963.59;2117450;27;20031;-70
2022/11/07 01:46:32;;;;;;;3.55;1.48;;;;;;;7.31;100.00;92958.75;2130916;27;20023;-70
2022/11/07 01:47:37;;;;;;;4.72;1.50;;;;;;;7.36;100.00;92958.31;2130750;27;20025;-70
2022/11/07 01:48:43;;;;;;;6.32;1.38;;;;;;;7.32;100.00;92961.00;2130543;27;20084;-70
2022/11/07 01:49:44;;;;;;;4.15;1.50;;;;;;;7.26;100.00;92962.59;2130505;27;20031;-70
2022/11/07 01:50:45;;;;;;;4.25;1.40;;;;;;;7.25;100.00;92966.44;2126512;27;20437;-70
2022/11/07 01:52:04;;;;;;;4.00;1.52;;;;;;;7.21;100.00;92960.41;2130744;27;20031;-70
2022/11/07 01:53:05;;;;;;;4.47;1.65;;;;;;;7.25;100.00;92957.69;2130621;27;20041;-71
2022/11/07 01:54:07;;;;;;;4.43;1.70;;;;;;;7.25;100.00;92963.03;2129853;27;20317;-71
2022/11/07 01:55:25;;;;;;;2.20;1.23;;;;;;;7.37;100.00;92959.06;2130622;27;20505;-71
2022/11/07 01:56:30;;;;;;;2.53;1.13;;;;;;;7.36;100.00;92950.34;2128065;27;20452;-70
2022/11/07 01:57:45;;;;;;;4.30;1.30;;;;;;;7.42;100.00;92955.94;2121350;27;20023;-71
2022/11/07 01:58:47;;;;;;;1.85;1.05;;;;;;;7.40;100.00;92952.94;2119532;27;20039;-71
2022/11/07 01:59:51;;;;;;;2.40;1.00;;;;;;;7.37;100.00;92957.16;2129980;27;20041;-70
2022/11/07 02:00:52;;;;;;;3.60;1.00;;;;;;;7.29;100.00;92961.81;2130725;27;20058;-70
2022/11/07 02:01:54;;;;;;;2.60;1.13;;;;;;;7.28;100.00;92957.63;2130766;27;20027;-70
2022/11/07 02:03:01;;;;;;;5.55;1.73;;;;;;;7.31;100.00;92950.78;2121365;27;20042;-70
2022/11/07 02:04:03;;;;;;;1.85;1.20;;;;;;;7.40;100.00;92956.38;2122208;27;20126;-71
2022/11/07 02:05:06;;;;;;;1.95;0.85;;;;;;;7.46;100.00;92949.47;2129911;27;20026;-70
2022/11/07 02:06:13;;;;;;;2.95;1.30;;;;;;;7.51;100.00;92958.91;2130567;27;20049;-71
2022/11/07 02:07:19;;;;;;;5.25;1.40;;;;;;;7.67;100.00;92951.06;2130294;27;20528;-71
2022/11/07 02:08:22;;;;;;;4.45;1.33;;;;;;;7.57;100.00;92957.28;2127145;27;20356;-70
2022/11/07 02:09:23;;;;;;;3.50;1.30;;;;;;;7.52;100.00;92949.78;2129482;27;20026;-70
2022/11/07 02:10:27;;;;;;;5.88;1.50;;;;;;;7.47;100.00;92953.63;2128049;27;20027;-71
2022/11/07 02:11:28;;;;;;;1.85;1.05;;;;;;;7.65;100.00;92947.31;2130710;27;20449;-70
2022/11/07 02:12:29;;;;;;;5.88;1.55;;;;;;;7.69;100.00;92950.69;2130557;27;20041;-70
2022/11/07 02:13:31;;;;;;;4.93;1.30;;;;;;;7.56;100.00;92956.53;2130470;27;20539;-70
2022/11/07 02:16:27;;;;;;;;;;;;;;;7.47;100.00;92944.91;2145612;27;20538;-71
2022/11/07 02:17:28;;;;;;;5.22;1.33;;;;;;;7.39;100.00;92946.13;2138132;27;20009;-68
2022/11/07 02:18:30;;;;;;;4.25;1.23;;;;;;;7.32;100.00;92939.75;2138187;27;20026;-68
2022/11/07 02:19:46;;;;;;;5.20;1.30;;;;;;;7.31;100.00;92945.47;2137817;27;20121;-71
2022/11/07 02:20:47;;;;;;;4.95;1.52;;;;;;;7.35;100.00;92945.44;2134161;27;20533;-71
2022/11/07 02:21:57;;;;;;;4.22;1.20;;;;;;;7.31;100.00;92940.91;2137915;27;20376;-71
2022/11/07 02:23:05;;;;;;;3.40;1.23;;;;;;;7.45;100.00;92950.59;2137966;27;20103;-70
2022/11/07 02:24:06;;;;;;;3.47;1.50;;;;;;;7.38;100.00;92947.28;2137783;27;20026;-70
2022/11/07 02:25:11;;;;;;;1.85;1.25;;;;;;;7.32;100.00;92944.31;2136957;27;20038;-71
2022/11/07 02:26:12;;;;;;;4.32;1.25;;;;;;;7.59;100.00;92941.69;2138160;27;20034;-70
2022/11/07 02:27:17;;;;;;;11.95;2.53;;;;;;;7.71;100.00;92927.09;2137864;27;20026;-70
2022/11/07 02:28:20;;;;;;;6.13;1.60;;;;;;;7.85;100.00;92931.44;2134100;27;20018;-71
2022/11/07 02:29:23;;;;;;;5.97;1.17;;;;;;;7.71;100.00;92935.06;2138016;27;20106;-72
2022/11/07 02:30:30;;;;;;;6.20;1.85;;;;;;;7.62;100.00;92930.25;2137041;27;20456;-69
2022/11/07 02:31:31;;;;;;;5.72;1.33;;;;;;;7.61;100.00;92930.66;2137055;27;20413;-69
2022/11/07 02:32:32;;;;;;;4.10;1.55;;;;;;;7.53;100.00;92944.03;2138074;27;20031;-69
2022/11/07 02:33:33;;;;;;;7.38;1.52;;;;;;;7.58;100.00;92932.94;2137841;27;20062;-69
2022/11/07 02:34:34;;;;;;;6.25;1.40;;;;;;;7.63;100.00;92941.63;2137886;27;20448;-69
2022/11/07 02:35:42;;;;;;;4.05;1.75;;;;;;;7.67;100.00;92945.75;2137005;27;20043;-69
2022/11/07 02:36:43;;;;;;;8.45;1.55;;;;;;;7.75;100.00;92930.44;2137918;27;20121;-69
2022/11/07 02:37:44;;;;;;;7.32;1.70;;;;;;;7.73;100.00;92943.41;2138026;27;20034;-69
2022/11/07 02:38:47;;;;;;;7.43;1.55;;;;;;;7.66;100.00;92941.59;2138064;27;20031;-68
2022/11/07 02:39:49;;;;;;;5.00;1.55;;;;;;;7.63;100.00;92944.28;2134250;27;20482;-69
2022/11/07 02:40:55;;;;;;;5.68;1.88;;;;;;;7.61;100.00;92933.31;2137868;27;20113;-69
2022/11/07 02:41:59;;;;;;;5.55;1.90;;;;;;;7.52;100.00;92947.84;2137185;27;20034;-69
2022/11/07 02:43:02;;;;;;;6.25;1.42;;;;;;;7.48;100.00;92941.84;2137980;27;20083;-69
2022/11/07 02:44:10;;;;;;;4.63;1.48;;;;;;;7.60;100.00;92948.53;2137632;27;20535;-69
2022/11/07 02:45:24;;;;;;;6.60;2.00;;;;;;;7.52;100.00;92953.19;2137845;27;20034;-69
2022/11/07 02:46:27;;;;;;;5.78;1.38;;;;;;;7.49;100.00;92947.91;2129491;27;20054;-69
2022/11/07 02:47:28;;;;;;;7.10;1.40;;;;;;;7.54;100.00;92952.78;2135488;27;20026;-68
2022/11/07 02:48:31;;;;;;;7.45;1.65;;;;;;;7.67;100.00;92956.41;2137860;27;20091;-69
2022/11/07 02:49:32;;;;;;;4.18;1.30;;;;;;;7.66;100.00;92954.91;2137905;27;20049;-69
2022/11/07 02:50:33;;;;;;;6.25;1.48;;;;;;;7.78;100.00;92953.59;2137757;27;20041;-69
2022/11/07 02:51:34;;;;;;;8.68;1.45;;;;;;;7.72;100.00;92958.59;2136277;27;20029;-68
2022/11/07 02:52:36;;;;;;;8.82;1.95;;;;;;;7.63;100.00;92958.34;2135864;27;20054;-67
2022/11/07 02:53:37;;;;;;;4.50;1.40;;;;;;;7.55;100.00;92960.38;2137396;27;20455;-68
2022/11/07 02:54:38;;;;;;;5.57;1.92;;;;;;;7.53;100.00;92954.69;2137790;27;20031;-69
2022/11/07 02:55:41;;;;;;;6.07;1.63;;;;;;;7.58;100.00;92954.22;2137506;27;20476;-69
2022/11/07 02:56:42;;;;;;;4.75;1.33;;;;;;;7.58;100.00;92956.88;2136930;27;20034;-69
2022/11/07 02:57:43;;;;;;;4.93;1.73;;;;;;;7.67;100.00;92951.06;2137432;27;20039;-69
2022/11/07 02:58:45;;;;;;;7.22;1.38;;;;;;;7.77;100.00;92954.75;2137822;27;20033;-68
2022/11/07 02:59:47;;;;;;;6.38;1.50;;;;;;;7.76;100.00;92963.88;2133578;27;20073;-68
2022/11/07 03:00:49;;;;;;;12.23;1.88;;;;;;;7.80;100.00;92951.28;2137539;27;20483;-68
2022/11/07 03:01:50;;;;;;;7.00;1.75;;;;;;;7.74;100.00;92947.56;2137269;27;20034;-69
2022/11/07 03:02:51;;;;;;;7.43;1.60;;;;;;;7.80;100.00;92957.34;2128407;27;20696;-68
2022/11/07 03:03:53;;;;;;;7.93;1.42;;;;;;;7.75;100.00;92951.75;2128270;27;20022;-69
2022/11/07 03:04:53;;;;;;;7.15;1.42;;;;;;;7.68;100.00;92960.59;2137546;27;20026;-69
2022/11/07 03:05:55;;;;;;;4.10;1.60;;;;;;;7.76;100.00;92953.25;2137522;27;20368;-69
2022/11/07 03:06:56;;;;;;;5.78;2.05;;;;;;;7.62;100.00;92964.06;2137629;27;20640;-69
2022/11/07 03:07:57;;;;;;;3.42;1.15;;;;;;;7.78;100.00;92961.59;2136931;27;20022;-71
2022/11/07 03:08:58;;;;;;;7.00;1.60;;;;;;;7.65;100.00;92960.63;2137674;27;20042;-69
2022/11/07 03:09:59;;;;;;;6.97;1.40;;;;;;;7.58;100.00;92959.53;2137502;27;20026;-69
2022/11/07 03:11:01;;;;;;;4.82;1.60;;;;;;;7.56;100.00;92961.88;2137568;27;20038;-70
2022/11/07 03:12:02;;;;;;;8.57;1.60;;;;;;;7.61;100.00;92954.59;2137489;27;20433;-69
2022/11/07 03:13:03;;;;;;;6.25;1.40;;;;;;;7.61;100.00;92960.66;2137243;27;20049;-69
2022/11/07 03:14:04;;;;;;;8.35;1.50;;;;;;;7.59;100.00;92960.28;2137398;27;20034;-69
2022/11/07 03:15:08;;;;;;;4.28;1.02;;;;;;;7.64;100.00;92959.09;2137635;27;20098;-69
2022/11/07 03:16:10;;;;;;;6.35;1.55;;;;;;;7.79;100.00;92969.16;2136610;27;20081;-69
2022/11/07 03:17:11;;;;;;;4.78;1.40;;;;;;;7.79;100.00;92958.50;2137482;27;20018;-69
2022/11/07 03:18:12;;;;;;;7.03;1.85;;;;;;;7.85;100.00;92958.81;2134462;27;20018;-69
2022/11/07 03:19:13;;;;;;;8.88;1.63;;;;;;;7.97;100.00;92960.91;2137488;27;20195;-69
2022/11/07 03:20:14;;;;;;;5.70;1.42;;;;;;;8.16;100.00;92964.81;2137857;27;20038;-69
2022/11/07 03:21:15;;;;;;;7.72;1.63;;;;;;;7.91;100.00;92965.19;2137714;27;20448;-69
2022/11/07 03:22:15;;;;;;;4.38;1.13;;;;;;;7.84;100.00;92970.63;2133448;27;20034;-69
2022/11/07 03:23:16;;;;;;;9.23;1.80;;;;;;;7.74;100.00;92956.31;2136021;27;20376;-69
2022/11/07 03:24:17;;;;;;;10.43;1.55;;;;;;;7.69;100.00;92959.41;2137457;27;20027;-69
2022/11/07 03:25:18;;;;;;;2.42;1.30;;;;;;;7.74;100.00;92966.19;2137505;27;20026;-69
2022/11/07 03:26:19;;;;;;;3.95;1.60;;;;;;;7.65;100.00;92963.28;2137539;27;20027;-69
2022/11/07 03:27:21;;;;;;;5.47;1.27;;;;;;;7.80;100.00;92968.00;2134182;27;20018;-69
2022/11/07 03:28:22;;;;;;;9.18;1.58;;;;;;;7.70;100.00;92962.84;2131296;27;20027;-69
2022/11/07 03:29:24;;;;;;;7.75;1.67;;;;;;;7.67;100.00;92966.28;2131630;27;20110;-69
2022/11/07 03:30:25;;;;;;;4.20;1.33;;;;;;;7.72;100.00;92960.50;2131869;27;20031;-70
2022/11/07 03:31:26;;;;;;;6.90;1.40;;;;;;;7.69;100.00;92962.09;2131909;27;20044;-69
2022/11/07 03:32:27;;;;;;;5.90;1.60;;;;;;;7.67;100.00;92961.72;2131585;27;20490;-70
2022/11/07 03:33:30;;;;;;;4.93;1.42;;;;;;;7.62;100.00;92966.72;2130718;27;20019;-69
2022/11/07 03:34:30;;;;;;;7.10;1.55;;;;;;;7.70;100.00;92970.81;2131592;27;20034;-70
2022/11/07 03:35:31;;;;;;;3.88;1.20;;;;;;;7.67;100.00;92967.03;2131621;27;20030;-69
2022/11/07 03:36:33;;;;;;;5.55;1.52;;;;;;;7.63;100.00;92962.91;2131721;27;20038;-70
2022/11/07 03:37:34;;;;;;;6.38;1.50;;;;;;;7.59;100.00;92957.63;2131573;27;20034;-69
2022/11/07 03:38:34;;;;;;;5.47;1.48;;;;;;;7.81;100.00;92968.75;2131183;27;20194;-69
2022/11/07 03:39:35;;;;;;;3.65;1.30;;;;;;;7.86;100.00;92964.88;2131753;27;20488;-69
2022/11/07 03:40:36;;;;;;;7.53;1.40;;;;;;;7.93;100.00;92970.13;2131544;27;20090;-70
2022/11/07 03:41:37;;;;;;;5.97;1.70;;;;;;;7.76;100.00;92964.63;2131730;27;20027;-69
2022/11/07 03:42:39;;;;;;;3.88;1.17;;;;;;;7.73;100.00;92970.78;2131471;27;20034;-70
2022/11/07 03:43:40;;;;;;;4.50;1.33;;;;;;;7.76;100.00;92971.84;2130704;27;20032;-69
2022/11/07 03:44:41;;;;;;;11.43;1.50;;;;;;;7.80;100.00;92972.56;2131602;27;20041;-69
2022/11/07 03:45:42;;;;;;;4.82;1.42;;;;;;;7.69;100.00;92967.41;2131625;27;20073;-69
2022/11/07 03:46:43;;;;;;;8.10;1.75;;;;;;;7.88;100.00;92967.91;2131709;27;20388;-70
2022/11/07 03:47:45;;;;;;;10.23;1.73;;;;;;;7.87;100.00;92967.16;2131506;27;20073;-69
2022/11/07 03:48:46;;;;;;;6.22;1.50;;;;;;;7.89;100.00;92970.16;2126053;27;20031;-69
2022/11/07 03:49:47;;;;;;;10.63;1.52;;;;;;;7.86;100.00;92967.53;2131511;27;20029;-69
2022/11/07 03:50:48;;;;;;;4.53;1.20;;;;;;;7.96;100.00;92967.41;2131604;27;20483;-69
2022/11/07 03:51:49;;;;;;;6.57;1.40;;;;;;;7.96;100.00;92972.72;2131560;27;20072;-69
2022/11/07 03:52:50;;;;;;;7.65;1.35;;;;;;;7.87;100.00;92977.81;2131387;27;20030;-70
2022/11/07 03:53:51;;;;;;;6.80;1.77;;;;;;;7.97;100.00;92976.88;2130616;27;20510;-69
2022/11/07 03:54:52;;;;;;;7.28;1.50;;;;;;;7.85;100.00;92976.69;2131516;27;20052;-69
2022/11/07 03:55:54;;;;;;;7.88;1.17;;;;;;;7.75;100.00;92978.34;2131492;27;20114;-69
2022/11/07 03:56:55;;;;;;;6.60;1.67;;;;;;;7.81;100.00;92979.38;2131519;27;20031;-69
2022/11/07 03:57:56;;;;;;;9.90;1.85;;;;;;;7.74;100.00;92971.53;2122073;27;20457;-69
2022/11/07 03:58:57;;;;;;;11.30;1.83;;;;;;;7.68;100.00;92973.09;2122216;27;20027;-69
2022/11/07 03:59:58;;;;;;;10.10;1.52;;;;;;;7.63;100.00;92984.19;2130886;27;20061;-69
2022/11/07 04:00:59;;;;;;;5.65;1.42;;;;;;;7.92;100.00;92977.34;2131428;27;20354;-69
2022/11/07 04:02:00;;;;;;;10.73;1.67;;;;;;;7.85;100.00;92980.09;2131591;27;20031;-69
2022/11/07 04:03:03;;;;;;;6.82;1.20;;;;;;;7.84;100.00;92983.91;2131385;27;20560;-69
2022/11/07 04:04:04;;;;;;;4.57;0.93;;;;;;;7.93;100.00;92978.09;2131163;27;20039;-69
2022/11/07 04:05:07;;;;;;;7.13;1.75;;;;;;;7.95;100.00;92981.88;2130743;27;20096;-69
2022/11/07 04:06:08;;;;;;;7.60;1.23;;;;;;;8.02;100.00;92989.75;2131608;27;20051;-70
2022/11/07 04:07:09;;;;;;;8.50;1.85;;;;;;;8.00;100.00;92996.63;2131533;27;20034;-70
2022/11/07 04:08:10;;;;;;;11.13;1.63;;;;;;;7.85;100.00;92993.41;2131411;27;20026;-70
2022/11/07 04:09:11;;;;;;;6.40;1.50;;;;;;;7.80;100.00;92999.19;2131421;27;20440;-69
2022/11/07 04:10:12;;;;;;;6.03;1.60;;;;;;;7.79;100.00;92990.44;2130738;27;20027;-69
2022/11/07 04:17:17;;;;;;;6.65;1.45;;;;;;;7.88;100.00;92997.94;2131290;27;20042;-69
2022/11/07 04:17:53;;;;;;;5.82;1.60;;;;;;;7.91;100.00;93007.03;2128254;27;20446;-69
2022/11/07 04:18:55;;;;;;;4.53;1.40;;;;;;;8.00;100.00;93004.63;2131197;27;20112;-69
2022/11/07 04:19:56;;;;;;;8.52;1.50;;;;;;;7.93;100.00;93010.78;2131438;27;20031;-69
2022/11/07 04:20:57;;;;;;;5.72;1.52;;;;;;;7.94;100.00;93006.97;2131019;27;20030;-69
2022/11/07 04:21:58;;;;;;;3.67;1.20;;;;;;;7.92;100.00;93006.63;2131319;27;20031;-69
2022/11/07 04:22:59;;;;;;;7.30;1.58;;;;;;;7.97;100.00;93010.75;2131236;27;20034;-69
2022/11/07 04:24:00;;;;;;;7.05;1.50;;;;;;;8.25;100.00;93012.25;2130878;27;20050;-69
2022/11/07 04:25:01;;;;;;;2.35;0.98;;;;;;;8.13;100.00;93007.50;2131214;27;20035;-69
2022/11/07 04:28:42;;;;;;;4.63;1.40;;;;;;;7.96;100.00;93010.00;2131082;27;20039;-69
2022/11/07 04:29:43;;;;;;;3.65;1.00;;;;;;;7.90;100.00;93016.16;2131209;27;20038;-69
2022/11/07 04:30:46;;;;;;;5.97;1.50;;;;;;;7.81;100.00;93009.44;2126673;27;20067;-69
2022/11/07 04:31:47;;;;;;;6.63;1.80;;;;;;;7.77;100.00;93007.94;2131261;27;20038;-69
2022/11/07 04:32:51;;;;;;;4.15;1.20;;;;;;;7.93;100.00;93015.34;2122180;27;20087;-69
2022/11/07 04:33:52;;;;;;;7.32;1.50;;;;;;;7.83;100.00;93006.38;2122102;27;20092;-69
2022/11/07 04:34:53;;;;;;;5.00;1.20;;;;;;;7.89;100.00;93010.06;2131080;27;20035;-69
2022/11/07 04:35:54;;;;;;;6.75;1.45;;;;;;;7.86;100.00;93015.44;2131130;27;20024;-69
2022/11/07 04:36:55;;;;;;;6.50;1.45;;;;;;;7.76;100.00;93011.78;2130403;27;20055;-69
2022/11/07 04:37:57;;;;;;;4.05;1.30;;;;;;;7.94;100.00;93006.97;2131267;27;20022;-69
2022/11/07 04:38:58;;;;;;;3.55;1.33;;;;;;;7.93;100.00;93021.44;2130555;27;20376;-69
2022/11/07 04:39:59;;;;;;;6.68;1.33;;;;;;;7.79;100.00;93014.38;2130941;27;20456;-69
2022/11/07 04:41:00;;;;;;;4.68;1.48;;;;;;;7.78;100.00;93012.13;2131307;27;20027;-69
2022/11/07 04:42:01;;;;;;;7.00;1.20;;;;;;;7.91;100.00;93004.38;2130734;27;20031;-69
2022/11/07 04:43:07;;;;;;;4.05;1.63;;;;;;;7.78;100.00;93002.25;2131213;27;20042;-69
2022/11/07 04:44:08;;;;;;;5.80;1.83;;;;;;;7.76;100.00;93001.13;2130811;27;20094;-69
2022/11/07 04:45:10;;;;;;;8.38;1.25;;;;;;;7.71;100.00;93006.91;2131166;27;20062;-69
2022/11/07 04:46:11;;;;;;;4.13;1.40;;;;;;;7.84;100.00;93007.88;2131221;27;20899;-69
2022/11/07 04:47:13;;;;;;;7.70;1.52;;;;;;;7.86;100.00;93007.47;2130511;27;20035;-69
2022/11/07 04:48:15;;;;;;;6.78;1.00;;;;;;;7.85;100.00;93004.03;2131080;27;20031;-69
2022/11/07 04:49:17;;;;;;;5.35;1.42;;;;;;;7.76;100.00;92995.81;2126809;27;20026;-69
2022/11/07 04:50:19;;;;;;;4.28;1.45;;;;;;;7.78;100.00;93010.22;2131006;27;20041;-69
2022/11/07 04:51:21;;;;;;;9.18;1.50;;;;;;;7.97;100.00;93008.84;2131135;27;20529;-69
2022/11/07 04:52:22;;;;;;;7.72;1.45;;;;;;;7.91;100.00;93005.13;2129230;27;20450;-69
2022/11/07 04:53:23;;;;;;;4.00;1.38;;;;;;;7.87;100.00;93001.00;2131198;27;20421;-69
2022/11/07 04:54:24;;;;;;;6.53;1.45;;;;;;;7.81;100.00;93012.09;2131035;27;20052;-69
2022/11/07 04:55:29;;;;;;;7.07;1.40;;;;;;;7.81;100.00;93012.09;2131189;27;20022;-69
2022/11/07 04:56:30;;;;;;;7.05;1.35;;;;;;;7.90;100.00;93008.94;2131194;27;20082;-69
2022/11/07 04:57:31;;;;;;;6.47;1.30;;;;;;;8.05;100.00;93017.47;2126938;27;20490;-69
2022/11/07 04:58:33;;;;;;;4.95;1.33;;;;;;;8.08;100.00;93020.09;2131180;27;20027;-69
2022/11/07 04:59:35;;;;;;;5.95;1.10;;;;;;;8.11;100.00;93017.78;2130863;27;20066;-69
2022/11/07 05:00:36;;;;;;;7.25;1.17;;;;;;;8.00;100.00;93015.28;2131063;27;20376;-69
2022/11/07 05:01:37;;;;;;;4.25;1.45;;;;;;;7.87;100.00;93016.97;2131086;27;20457;-69
2022/11/07 05:02:38;;;;;;;7.88;1.30;;;;;;;7.84;100.00;93015.84;2130285;27;20038;-69
2022/11/07 05:03:39;;;;;;;5.47;1.25;;;;;;;7.81;100.00;93013.97;2121536;27;20063;-69
2022/11/07 05:04:40;;;;;;;2.50;1.33;;;;;;;7.89;100.00;93022.63;2121618;27;20019;-69
2022/11/07 05:05:41;;;;;;;10.48;1.80;;;;;;;7.82;100.00;93024.25;2130761;27;20030;-69
2022/11/07 05:06:43;;;;;;;7.60;1.20;;;;;;;7.82;100.00;93024.25;2130877;27;20118;-69